Shive, Texas
Current Conditions -  °F | °C
As of 7:35 PM on Monday 22 Dec 2014 (Local Time) from KMNZ Reporting Station
Clear Clear  
Wind Chill: 56°   Ceiling: Unl
Heat Index: 56°   Visibility: 10mi
Dew Point: 41°   Wind: 9mph
Humidity: 55%   Direction: 350°N
Pressure: 29.71"   Gusts: NA
Location:  31.6401°N, 98.1198°W
Report Text: KMNZ 230135Z AUTO 35008KT 10SM CLR 14/05 A2971 RMK AO2 T01360048
Loading
Personal Weather Stations






























Interactive Weather Map New forecast layout! Learn more

10-Day Weather Forecast

Advertisements
Track Severe Weather on mobile